createdAt,value
2019-01-09T00:04:30.069Z," 5.25"
2019-01-09T00:09:25.899Z," 5.14"
2019-01-09T00:14:21.841Z," 5.15"
2019-01-09T00:19:17.630Z," 5.11"
2019-01-09T00:24:14.879Z," 4.87"
2019-01-09T00:29:10.145Z," 4.60"
2019-01-09T00:34:05.827Z," 4.67"
2019-01-09T00:39:01.517Z," 4.92"
2019-01-09T00:43:57.170Z," 4.97"
2019-01-09T00:48:53.084Z," 4.93"
2019-01-09T00:53:48.783Z," 4.86"
2019-01-09T00:58:45.384Z," 4.94"
2019-01-09T01:03:41.910Z," 4.86"
2019-01-09T01:08:37.254Z," 4.93"
2019-01-09T01:13:33.048Z," 4.96"
2019-01-09T01:18:28.753Z," 4.93"
2019-01-09T01:23:24.496Z," 4.94"
2019-01-09T01:28:20.182Z," 4.94"
2019-01-09T01:33:15.926Z," 4.96"
2019-01-09T01:38:11.782Z," 4.96"
2019-01-09T01:43:09.500Z," 5.00"
2019-01-09T01:53:09.006Z," 5.17"
2019-01-09T01:58:04.472Z," 5.28"
2019-01-09T02:02:59.964Z," 5.02"
2019-01-09T02:07:55.736Z," 5.02"
2019-01-09T02:12:51.344Z," 4.93"
2019-01-09T02:17:47.388Z," 4.82"
2019-01-09T02:27:46.577Z," 4.66"
2019-01-09T02:32:43.111Z," 4.63"
2019-01-09T02:37:39.209Z," 4.71"
2019-01-09T02:42:35.672Z," 4.73"
2019-01-09T02:47:31.175Z," 4.80"
2019-01-09T02:52:27.867Z," 4.89"
2019-01-09T02:57:24.647Z," 4.92"
2019-01-09T03:02:21.004Z," 4.78"
2019-01-09T03:07:16.321Z," 4.84"
2019-01-09T03:12:11.948Z," 4.71"
2019-01-09T03:17:07.384Z," 4.71"
2019-01-09T03:22:03.859Z," 4.68"
2019-01-09T03:27:00.140Z," 4.60"
2019-01-09T03:31:57.335Z," 4.53"
2019-01-09T03:36:52.673Z," 4.48"
2019-01-09T03:41:48.998Z," 4.49"
2019-01-09T03:46:44.838Z," 4.45"
2019-01-09T03:51:41.102Z," 4.37"
2019-01-09T03:56:36.643Z," 4.37"
2019-01-09T04:01:33.230Z," 4.26"
2019-01-09T04:06:29.049Z," 4.28"
2019-01-09T04:11:24.853Z," 4.32"
2019-01-09T04:16:20.671Z," 4.26"
2019-01-09T04:21:17.149Z," 4.24"
2019-01-09T04:26:12.671Z," 4.17"
2019-01-09T04:31:09.299Z," 4.17"
2019-01-09T04:36:05.661Z," 4.05"
2019-01-09T04:41:00.949Z," 4.02"
2019-01-09T04:45:57.261Z," 3.99"
2019-01-09T04:50:52.964Z," 4.01"
2019-01-09T04:55:49.648Z," 3.99"
2019-01-09T05:00:45.365Z," 4.24"
2019-01-09T05:05:40.787Z," 4.22"
2019-01-09T05:10:36.689Z," 4.32"
2019-01-09T05:15:32.288Z," 4.40"
2019-01-09T05:20:28.883Z," 4.37"
2019-01-09T05:25:25.513Z," 4.42"
2019-01-09T05:30:20.950Z," 4.52"
2019-01-09T05:35:16.672Z," 4.37"
2019-01-09T05:40:12.257Z," 4.50"
2019-01-09T05:45:08.912Z," 4.48"
2019-01-09T05:50:04.390Z," 4.38"
2019-01-09T05:54:59.851Z," 4.44"
2019-01-09T05:59:57.038Z," 4.40"
2019-01-09T06:04:52.484Z," 4.42"
2019-01-09T06:09:48.036Z," 4.31"
2019-01-09T06:14:43.699Z," 4.23"
2019-01-09T06:19:40.011Z," 4.17"
2019-01-09T06:24:35.693Z," 4.12"
2019-01-09T06:29:31.633Z," 4.23"
2019-01-09T06:34:28.524Z," 4.22"
2019-01-09T06:39:23.840Z," 4.44"
2019-01-09T06:44:22.683Z," 4.49"
2019-01-09T06:49:18.789Z," 4.42"
2019-01-09T06:54:14.199Z," 4.37"
2019-01-09T06:59:09.824Z," 4.52"
2019-01-09T07:04:05.684Z," 4.40"
2019-01-09T07:09:02.079Z," 4.49"
2019-01-09T07:13:57.666Z," 4.45"
2019-01-09T07:18:53.378Z," 4.49"
2019-01-09T07:23:50.225Z," 4.40"
2019-01-09T07:28:45.434Z," 4.34"
2019-01-09T07:33:41.084Z," 4.22"
2019-01-09T07:38:36.796Z," 4.10"
2019-01-09T07:43:32.312Z," 4.02"
2019-01-09T07:48:28.557Z," 3.95"
2019-01-09T07:53:25.395Z," 4.04"
2019-01-09T07:58:21.118Z," 4.05"
2019-01-09T08:03:17.940Z," 4.06"
2019-01-09T08:08:13.258Z," 3.96"
2019-01-09T08:13:08.940Z," 4.02"
2019-01-09T08:18:04.467Z," 4.06"
2019-01-09T08:23:01.587Z," 4.20"
2019-01-09T08:27:57.120Z," 4.30"
2019-01-09T08:32:54.007Z," 4.42"
2019-01-09T08:37:50.115Z," 4.48"
2019-01-09T08:42:45.878Z," 4.68"
2019-01-09T08:47:41.995Z," 4.77"
2019-01-09T08:52:37.853Z," 4.87"
2019-01-09T08:57:35.176Z," 5.00"
2019-01-09T09:02:30.686Z," 5.14"
2019-01-09T09:07:26.649Z," 5.25"
2019-01-09T09:12:23.911Z," 5.30"
2019-01-09T09:17:20.864Z," 5.14"
2019-01-09T09:22:16.102Z," 5.00"
2019-01-09T09:27:11.494Z," 4.90"
2019-01-09T09:32:06.953Z," 4.86"
2019-01-09T09:37:03.566Z," 4.99"
2019-01-09T09:42:00.279Z," 4.99"
2019-01-09T09:46:56.318Z," 5.17"
2019-01-09T09:51:51.697Z," 5.29"
2019-01-09T09:56:47.442Z," 5.44"
2019-01-09T10:01:43.578Z," 5.41"
2019-01-09T10:06:39.723Z," 5.36"
2019-01-09T10:11:35.371Z," 5.36"
2019-01-09T10:16:31.356Z," 5.54"
2019-01-09T10:21:27.159Z," 5.56"
2019-01-09T10:26:23.192Z," 5.64"
2019-01-09T10:31:20.121Z," 5.71"
2019-01-09T10:36:15.751Z," 5.71"
2019-01-09T10:41:13.208Z," 5.76"
2019-01-09T10:46:09.706Z," 5.90"
2019-01-09T10:51:05.304Z," 5.93"
2019-01-09T10:56:01.156Z," 5.87"
2019-01-09T11:00:58.006Z," 5.94"
2019-01-09T11:05:53.499Z," 5.94"
2019-01-09T11:10:49.892Z," 5.72"
2019-01-09T11:15:46.585Z," 5.79"
2019-01-09T11:20:41.572Z," 5.91"
2019-01-09T11:25:38.017Z," 5.98"
2019-01-09T11:30:33.802Z," 5.98"
2019-01-09T11:35:29.745Z," 5.98"
2019-01-09T11:40:25.380Z," 5.87"
2019-01-09T11:45:23.119Z," 5.93"
2019-01-09T11:50:18.836Z," 6.17"
2019-01-09T11:55:15.609Z," 6.16"
2019-01-09T12:00:11.078Z," 5.83"
2019-01-09T12:05:06.250Z," 5.84"
2019-01-09T12:10:01.711Z," 5.75"
2019-01-09T12:14:58.523Z," 5.86"
2019-01-09T12:19:53.855Z," 5.99"
2019-01-09T12:24:49.833Z," 5.97"
2019-01-09T12:29:46.566Z," 5.89"
2019-01-09T12:34:42.367Z," 5.97"
2019-01-09T12:39:38.118Z," 5.89"
2019-01-09T12:44:35.971Z," 5.94"
2019-01-09T12:49:32.297Z," 5.93"
2019-01-09T12:54:28.553Z," 5.82"
2019-01-09T12:59:25.198Z," 5.83"
2019-01-09T13:04:20.511Z," 5.84"
2019-01-09T13:09:22.052Z," 5.89"
2019-01-09T13:14:15.409Z," 5.91"
2019-01-09T13:19:12.923Z," 5.98"
2019-01-09T13:24:08.313Z," 6.14"
2019-01-09T13:29:04.019Z," 6.07"
2019-01-09T13:34:03.626Z," 5.99"
2019-01-09T13:38:58.297Z," 5.93"
2019-01-09T13:43:54.796Z," 5.98"
2019-01-09T13:48:51.662Z," 5.89"
2019-01-09T13:53:46.976Z," 5.79"
2019-01-09T13:58:43.567Z," 5.90"
2019-01-09T14:03:38.969Z," 5.82"
2019-01-09T14:08:34.762Z," 5.82"
2019-01-09T14:13:30.616Z," 5.83"
2019-01-09T14:18:27.637Z," 5.84"
2019-01-09T14:23:23.479Z," 5.79"
2019-01-09T14:28:20.134Z," 5.71"
2019-01-09T14:33:15.378Z," 5.57"
2019-01-09T14:38:10.670Z," 5.41"
2019-01-09T14:43:06.292Z," 5.39"
2019-01-09T14:48:02.064Z," 5.36"
2019-01-09T14:52:58.333Z," 5.38"
2019-01-09T14:57:53.916Z," 5.35"
2019-01-09T15:02:49.733Z," 5.36"
2019-01-09T15:07:45.337Z," 5.26"
2019-01-09T15:12:41.117Z," 5.21"
2019-01-09T15:17:36.827Z," 5.12"
2019-01-09T15:22:33.496Z," 5.14"
2019-01-09T15:27:30.178Z," 5.14"
2019-01-09T15:32:25.529Z," 5.14"
2019-01-09T15:37:20.976Z," 5.10"
2019-01-09T15:42:16.545Z," 4.96"
2019-01-09T15:47:13.463Z," 4.90"
2019-01-09T15:52:09.274Z," 4.84"
2019-01-09T15:57:05.076Z," 4.80"
2019-01-09T16:02:00.690Z," 4.90"
2019-01-09T16:06:56.290Z," 4.67"
2019-01-09T16:11:51.964Z," 4.62"
2019-01-09T16:16:47.645Z," 4.60"
2019-01-09T16:21:43.207Z," 4.48"
2019-01-09T16:26:40.145Z," 4.52"
2019-01-09T16:31:36.813Z," 4.37"
2019-01-09T16:36:32.407Z," 4.40"
2019-01-09T16:41:28.792Z," 4.50"
2019-01-09T16:46:24.300Z," 4.23"
2019-01-09T16:51:20.205Z," 4.37"
2019-01-09T16:56:16.311Z," 4.24"
2019-01-09T17:01:11.782Z," 4.38"
2019-01-09T17:06:08.362Z," 4.22"
2019-01-09T17:11:04.007Z," 4.32"
2019-01-09T17:15:59.794Z," 4.22"
2019-01-09T17:20:55.361Z," 4.30"
2019-01-09T17:25:51.148Z," 4.17"
2019-01-09T17:30:47.933Z," 4.20"
2019-01-09T17:35:43.618Z," 4.19"
2019-01-09T17:40:41.155Z," 4.23"
2019-01-09T17:45:36.678Z," 4.20"
2019-01-09T17:50:33.396Z," 4.02"
2019-01-09T17:55:29.581Z," 4.22"
2019-01-09T18:00:25.287Z," 4.17"
2019-01-09T18:05:21.420Z," 4.22"
2019-01-09T18:10:17.908Z," 4.16"
2019-01-09T18:15:14.412Z," 4.05"
2019-01-09T18:20:10.684Z," 4.19"
2019-01-09T18:25:07.214Z," 4.19"
2019-01-09T18:30:02.598Z," 3.96"
2019-01-09T18:34:58.349Z," 4.02"
2019-01-09T18:39:54.041Z," 4.08"
2019-01-09T18:44:49.826Z," 4.10"
2019-01-09T18:49:46.754Z," 3.99"
2019-01-09T18:54:42.160Z," 3.87"
2019-01-09T18:59:37.698Z," 3.87"
2019-01-09T19:04:33.331Z," 3.96"
2019-01-09T19:09:31.948Z," 3.91"
2019-01-09T19:14:27.238Z," 3.81"
2019-01-09T19:19:22.934Z," 3.87"
2019-01-09T19:24:19.367Z," 3.86"
2019-01-09T19:29:16.042Z," 3.81"
2019-01-09T19:34:11.280Z," 3.78"
2019-01-09T19:39:06.474Z," 3.74"
2019-01-09T19:44:02.389Z," 3.74"
2019-01-09T19:48:58.016Z," 3.80"
2019-01-09T19:53:55.005Z," 3.59"
2019-01-09T19:58:50.537Z," 3.56"
2019-01-09T20:03:46.628Z," 3.50"
2019-01-09T20:08:43.252Z," 3.56"
2019-01-09T20:13:38.629Z," 3.51"
2019-01-09T20:18:34.702Z," 3.53"
2019-01-09T20:23:30.265Z," 3.62"
2019-01-09T20:28:25.530Z," 3.55"
2019-01-09T20:33:22.268Z," 3.45"
2019-01-09T20:38:18.859Z," 3.53"
2019-01-09T20:43:14.256Z," 3.58"
2019-01-09T20:48:09.815Z," 3.58"
2019-01-09T20:53:05.434Z," 3.31"
2019-01-09T20:58:02.148Z," 3.28"
2019-01-09T21:02:58.384Z," 3.29"
2019-01-09T21:07:53.571Z," 3.22"
2019-01-09T21:12:50.150Z," 3.10"
2019-01-09T21:17:46.600Z," 3.03"
2019-01-09T21:22:41.803Z," 3.10"
2019-01-09T21:27:42.133Z," 2.87"
2019-01-09T21:32:36.691Z," 2.83"
2019-01-09T21:37:32.291Z," 2.92"
2019-01-09T21:42:27.895Z," 2.86"
2019-01-09T21:47:23.521Z," 2.86"
2019-01-09T21:52:18.958Z," 2.86"
2019-01-09T21:57:14.779Z," 2.80"
2019-01-09T22:02:10.311Z," 2.71"
2019-01-09T22:07:06.100Z," 2.68"
2019-01-09T22:12:02.614Z," 2.80"
2019-01-09T22:16:59.091Z," 2.69"
2019-01-09T22:21:55.539Z," 2.68"
2019-01-09T22:26:50.978Z," 2.82"
2019-01-09T22:31:46.655Z," 2.68"
2019-01-09T22:36:42.812Z," 2.61"
2019-01-09T22:41:38.301Z," 2.67"
2019-01-09T22:46:34.050Z," 2.46"
2019-01-09T22:51:30.681Z," 2.50"
2019-01-09T22:56:25.924Z," 2.53"
2019-01-09T23:01:21.340Z," 2.33"
2019-01-09T23:06:16.992Z," 2.33"
2019-01-09T23:11:12.392Z," 2.43"
2019-01-09T23:16:08.066Z," 2.35"
2019-01-09T23:21:03.654Z," 2.31"
2019-01-09T23:25:59.317Z," 2.28"
2019-01-09T23:30:54.940Z," 2.25"
2019-01-09T23:35:51.778Z," 2.15"
2019-01-09T23:40:47.077Z," 2.11"
2019-01-09T23:45:42.877Z," 2.10"
2019-01-09T23:50:39.432Z," 2.14"
2019-01-09T23:55:34.995Z," 2.15"
